createdAt,value
2018-12-03T00:00:03.901Z,11.30
2018-12-03T00:02:32.128Z,11.30
2018-12-03T00:05:00.340Z,11.30
2018-12-03T00:07:28.641Z,11.30
2018-12-03T00:09:56.932Z,11.30
2018-12-03T00:12:25.362Z,11.20
2018-12-03T00:14:53.551Z,11.20
2018-12-03T00:17:21.917Z,11.20
2018-12-03T00:19:50.178Z,11.20
2018-12-03T00:22:19.172Z,11.10
2018-12-03T00:24:47.577Z,11.10
2018-12-03T00:27:15.966Z,11.20
2018-12-03T00:29:44.208Z,11.20
2018-12-03T00:32:12.593Z,11.00
2018-12-03T00:34:41.640Z,11.20
2018-12-03T00:37:09.867Z,11.20
2018-12-03T00:39:38.091Z,11.20
2018-12-03T00:42:06.492Z,11.20
2018-12-03T00:44:34.708Z,11.10
2018-12-03T00:47:03.056Z,11.10
2018-12-03T00:49:32.054Z,11.20
2018-12-03T00:52:01.074Z,11.20
2018-12-03T00:54:29.423Z,11.20
2018-12-03T00:56:58.436Z,11.30
2018-12-03T00:59:26.805Z,11.30
2018-12-03T01:01:55.958Z,11.30
2018-12-03T01:04:24.265Z,11.30
2018-12-03T01:06:52.475Z,11.30
2018-12-03T01:09:20.805Z,11.30
2018-12-03T01:11:49.006Z,11.40
2018-12-03T01:14:17.337Z,11.50
2018-12-03T01:16:45.587Z,11.40
2018-12-03T01:19:13.857Z,11.40
2018-12-03T01:21:42.125Z,11.40
2018-12-03T01:24:10.594Z,11.40
2018-12-03T01:26:39.746Z,11.60
2018-12-03T01:29:08.109Z,11.60
2018-12-03T01:31:36.541Z,11.60
2018-12-03T01:34:04.767Z,11.60
2018-12-03T01:36:32.997Z,11.60
2018-12-03T01:39:01.989Z,11.60
2018-12-03T01:41:31.038Z,11.60
2018-12-03T01:43:59.287Z,11.60
2018-12-03T01:46:27.510Z,11.70
2018-12-03T01:48:55.775Z,11.70
2018-12-03T01:51:24.027Z,11.60
2018-12-03T01:53:52.469Z,11.70
2018-12-03T01:56:21.279Z,11.70
2018-12-03T01:58:49.514Z,11.60
2018-12-03T02:01:17.773Z,11.60
2018-12-03T02:03:46.012Z,11.70
2018-12-03T02:06:14.240Z,11.80
2018-12-03T02:08:42.497Z,11.80
2018-12-03T02:11:10.725Z,11.80
2018-12-03T02:13:39.751Z,11.60
2018-12-03T02:16:08.027Z,11.60
2018-12-03T02:18:36.272Z,11.70
2018-12-03T02:21:05.309Z,11.60
2018-12-03T02:23:33.590Z,11.60
2018-12-03T02:26:01.858Z,11.60
2018-12-03T02:28:30.111Z,11.70
2018-12-03T02:30:58.362Z,11.70
2018-12-03T02:33:26.614Z,11.60
2018-12-03T02:35:54.828Z,11.60
2018-12-03T02:38:23.874Z,11.60
2018-12-03T02:40:52.131Z,11.60
2018-12-03T02:43:20.397Z,11.50
2018-12-03T02:45:48.660Z,11.50
2018-12-03T02:48:17.646Z,11.70
2018-12-03T02:50:46.624Z,11.70
2018-12-03T02:53:15.689Z,11.80
2018-12-03T02:55:43.948Z,11.80
2018-12-03T02:58:12.154Z,12.00
2018-12-03T03:00:40.383Z,12.00
2018-12-03T03:03:08.649Z,12.10
2018-12-03T03:05:37.635Z,12.00
2018-12-03T03:08:06.621Z,11.90
2018-12-03T03:10:35.653Z,11.80
2018-12-03T03:13:03.944Z,11.70
2018-12-03T03:15:32.241Z,11.60
2018-12-03T03:18:01.252Z,11.70
2018-12-03T03:20:29.502Z,11.70
2018-12-03T03:22:57.724Z,11.70
2018-12-03T03:25:26.783Z,11.70
2018-12-03T03:27:55.073Z,11.70
2018-12-03T03:30:23.293Z,11.70
2018-12-03T03:32:51.505Z,11.80
2018-12-03T03:35:19.740Z,11.70
2018-12-03T03:37:47.951Z,11.80
2018-12-03T03:40:16.234Z,11.80
2018-12-03T03:42:44.478Z,11.80
2018-12-03T03:45:12.772Z,11.80
2018-12-03T03:47:40.969Z,11.80
2018-12-03T03:50:09.186Z,11.90
2018-12-03T03:52:38.183Z,11.90
2018-12-03T03:55:06.446Z,11.90
2018-12-03T03:57:34.685Z,11.90
2018-12-03T04:00:02.892Z,12.00
2018-12-03T04:02:31.101Z,12.00
2018-12-03T04:04:59.382Z,12.00
2018-12-03T04:07:27.533Z,12.00
2018-12-03T04:09:56.623Z,11.90
2018-12-03T04:12:24.874Z,11.90
2018-12-03T04:14:53.855Z,11.90
2018-12-03T04:17:22.085Z,11.90
2018-12-03T04:19:51.077Z,11.90
2018-12-03T04:22:20.108Z,11.70
2018-12-03T04:24:48.322Z,11.70
2018-12-03T04:27:16.617Z,11.90
2018-12-03T04:29:45.584Z,11.80
2018-12-03T04:32:13.868Z,11.80
2018-12-03T04:34:42.091Z,11.70
2018-12-03T04:37:10.373Z,11.80
2018-12-03T04:39:38.637Z,11.70
2018-12-03T04:42:07.598Z,11.70
2018-12-03T04:44:35.843Z,11.70
2018-12-03T04:47:04.102Z,11.70
2018-12-03T04:49:32.371Z,11.80
2018-12-03T04:52:00.591Z,11.80
2018-12-03T04:54:28.873Z,11.80
2018-12-03T04:56:57.079Z,11.90
2018-12-03T04:59:26.128Z,12.00
2018-12-03T05:01:54.376Z,11.90
2018-12-03T05:04:22.642Z,11.90
2018-12-03T05:06:51.632Z,11.90
2018-12-03T05:09:19.092Z,11.90
2018-12-03T05:11:47.315Z,11.90
2018-12-03T05:14:15.593Z,11.80
2018-12-03T05:16:43.800Z,11.70
2018-12-03T05:19:12.788Z,11.60
2018-12-03T05:21:41.799Z,11.60
2018-12-03T05:24:10.787Z,11.70
2018-12-03T05:26:39.802Z,11.70
2018-12-03T05:29:08.019Z,11.70
2018-12-03T05:31:36.239Z,11.60
2018-12-03T05:34:05.241Z,11.70
2018-12-03T05:36:33.522Z,11.60
2018-12-03T05:39:02.523Z,11.70
2018-12-03T05:41:30.777Z,11.60
2018-12-03T05:43:59.829Z,11.80
2018-12-03T05:46:28.819Z,11.80
2018-12-03T05:48:57.109Z,11.80
2018-12-03T05:51:25.345Z,11.70
2018-12-03T05:53:53.595Z,11.80
2018-12-03T05:56:22.655Z,11.60
2018-12-03T05:58:50.862Z,11.60
2018-12-03T06:01:19.878Z,11.60
2018-12-03T06:03:48.094Z,11.60
2018-12-03T06:06:16.374Z,11.60
2018-12-03T06:08:44.601Z,11.50
2018-12-03T06:11:12.835Z,11.50
2018-12-03T06:13:41.101Z,11.60
2018-12-03T06:16:09.362Z,11.70
2018-12-03T06:18:37.647Z,11.70
2018-12-03T06:21:05.902Z,11.70
2018-12-03T06:23:34.188Z,11.80
2018-12-03T06:26:02.473Z,11.90
2018-12-03T06:28:30.672Z,11.90
2018-12-03T06:30:59.151Z,11.80
2018-12-03T06:33:27.414Z,11.70
2018-12-03T06:35:55.687Z,11.70
2018-12-03T06:38:23.917Z,11.80
2018-12-03T06:40:52.954Z,11.80
2018-12-03T06:43:21.225Z,11.70
2018-12-03T06:45:49.489Z,11.70
2018-12-03T06:48:18.468Z,11.60
2018-12-03T06:50:47.451Z,11.60
2018-12-03T06:53:16.515Z,11.70
2018-12-03T06:55:44.724Z,11.70
2018-12-03T06:58:13.758Z,11.60
2018-12-03T07:00:42.948Z,11.60
2018-12-03T07:03:11.212Z,11.70
2018-12-03T07:05:39.445Z,11.60
2018-12-03T07:08:07.708Z,11.60
2018-12-03T07:10:36.712Z,11.60
2018-12-03T07:13:05.019Z,11.60
2018-12-03T07:15:34.051Z,11.90
2018-12-03T07:18:02.293Z,11.90
2018-12-03T07:20:31.275Z,12.10
2018-12-03T07:23:00.335Z,12.20
2018-12-03T07:25:28.577Z,12.10
2018-12-03T07:27:56.819Z,12.20
2018-12-03T07:30:25.039Z,12.30
2018-12-03T07:32:53.279Z,12.30
2018-12-03T07:35:21.570Z,12.40
2018-12-03T07:37:50.599Z,12.50
2018-12-03T07:40:18.881Z,12.40
2018-12-03T07:42:47.097Z,12.30
2018-12-03T07:45:16.229Z,12.40
2018-12-03T07:47:45.174Z,12.40
2018-12-03T07:50:13.463Z,12.40
2018-12-03T07:52:41.727Z,12.30
2018-12-03T07:55:09.994Z,12.30
2018-12-03T07:57:38.252Z,12.20
2018-12-03T08:00:06.542Z,12.20
2018-12-03T08:02:34.793Z,12.10
2018-12-03T08:05:03.034Z,12.10
2018-12-03T08:07:31.286Z,12.00
2018-12-03T08:09:59.520Z,12.10
2018-12-03T08:12:27.725Z,12.10
2018-12-03T08:14:55.989Z,12.00
2018-12-03T08:17:25.137Z,12.00
2018-12-03T08:19:56.582Z,12.10
2018-12-03T08:22:21.686Z,12.20
2018-12-03T08:24:49.893Z,12.30
2018-12-03T08:27:18.144Z,12.30
2018-12-03T08:29:47.171Z,12.20
2018-12-03T08:32:15.461Z,12.10
2018-12-03T08:34:43.671Z,12.10
2018-12-03T08:37:11.873Z,12.10
2018-12-03T08:39:40.885Z,12.10
2018-12-03T08:42:09.094Z,12.10
2018-12-03T08:44:37.328Z,12.20
2018-12-03T08:47:05.641Z,12.20
2018-12-03T08:49:33.923Z,11.90
2018-12-03T08:52:02.176Z,12.10
2018-12-03T08:54:30.394Z,12.10
2018-12-03T08:56:58.683Z,12.10
2018-12-03T08:59:26.927Z,12.10
2018-12-03T09:01:55.837Z,12.20
2018-12-03T09:04:24.110Z,12.10
2018-12-03T09:06:52.343Z,12.00
2018-12-03T09:09:20.573Z,12.00
2018-12-03T09:11:48.846Z,12.00
2018-12-03T09:14:17.955Z,11.90
2018-12-03T09:16:46.230Z,11.80
2018-12-03T09:19:14.478Z,11.80
2018-12-03T09:21:42.713Z,11.80
2018-12-03T09:24:11.811Z,11.70
2018-12-03T09:26:40.055Z,11.60
2018-12-03T09:29:08.298Z,11.70
2018-12-03T09:31:36.529Z,11.50
2018-12-03T09:34:04.827Z,11.60
2018-12-03T09:36:33.814Z,11.50
2018-12-03T09:39:02.837Z,11.40
2018-12-03T09:41:31.082Z,11.40
2018-12-03T09:44:00.124Z,11.40
2018-12-03T09:46:28.402Z,11.40
2018-12-03T09:48:56.630Z,11.50
2018-12-03T09:51:25.664Z,11.60
2018-12-03T09:53:53.929Z,11.60
2018-12-03T09:56:22.202Z,11.50
2018-12-03T09:58:50.525Z,11.60
2018-12-03T10:01:18.742Z,11.60
2018-12-03T10:03:47.755Z,11.80
2018-12-03T10:06:16.034Z,11.80
2018-12-03T10:08:44.288Z,11.80
2018-12-03T10:11:13.299Z,12.00
2018-12-03T10:13:41.522Z,12.00
2018-12-03T10:16:09.812Z,12.00
2018-12-03T10:18:38.027Z,11.90
2018-12-03T10:21:06.406Z,12.00
2018-12-03T10:23:34.634Z,12.10
2018-12-03T10:26:02.860Z,12.20
2018-12-03T10:28:31.103Z,12.20
2018-12-03T10:31:00.093Z,12.20
2018-12-03T10:33:28.342Z,12.20
2018-12-03T10:35:58.630Z,12.30
2018-12-03T10:38:25.572Z,12.30
2018-12-03T10:40:53.808Z,12.20
2018-12-03T10:43:22.101Z,12.20
2018-12-03T10:45:50.386Z,12.40
2018-12-03T10:48:18.631Z,12.30
2018-12-03T10:50:46.941Z,12.40
2018-12-03T10:53:15.240Z,12.30
2018-12-03T10:55:43.502Z,12.20
2018-12-03T10:58:12.529Z,12.20
2018-12-03T11:00:46.512Z,12.20
2018-12-03T11:03:15.557Z,12.20
2018-12-03T11:05:49.502Z,12.10
2018-12-03T11:08:18.513Z,12.40
2018-12-03T11:10:46.733Z,12.40
2018-12-03T11:13:14.960Z,12.40
2018-12-03T11:15:43.213Z,12.50
2018-12-03T11:18:11.453Z,12.50
2018-12-03T11:20:39.723Z,12.50
2018-12-03T11:23:07.984Z,12.50
2018-12-03T11:25:36.247Z,12.40
2018-12-03T11:28:05.224Z,12.50
2018-12-03T11:30:34.278Z,12.60
2018-12-03T11:33:02.526Z,12.50
2018-12-03T11:35:30.769Z,12.50
2018-12-03T11:37:59.761Z,12.40
2018-12-03T11:40:28.763Z,12.50
2018-12-03T11:42:56.973Z,12.50
2018-12-03T11:45:25.233Z,12.50
2018-12-03T11:47:53.465Z,12.60
2018-12-03T11:50:21.719Z,12.60
2018-12-03T11:52:49.989Z,12.60
2018-12-03T11:55:18.247Z,12.50
2018-12-03T11:57:46.518Z,12.60
2018-12-03T12:00:15.481Z,12.50
2018-12-03T12:02:43.775Z,12.50
2018-12-03T12:05:12.015Z,12.50
2018-12-03T12:07:42.429Z,12.60
2018-12-03T12:10:08.481Z,12.50
2018-12-03T12:12:36.705Z,12.50
2018-12-03T12:15:05.022Z,12.60
2018-12-03T12:17:33.303Z,12.40
2018-12-03T12:20:01.506Z,12.50
2018-12-03T12:22:30.555Z,12.30
2018-12-03T12:24:58.813Z,12.30
2018-12-03T12:27:27.089Z,12.30
2018-12-03T12:29:55.343Z,12.20
2018-12-03T12:32:23.626Z,12.10
2018-12-03T12:34:52.637Z,12.10
2018-12-03T12:37:20.901Z,12.10
2018-12-03T12:39:49.217Z,12.10
2018-12-03T12:42:18.211Z,12.10
2018-12-03T12:44:46.471Z,12.10
2018-12-03T12:47:14.693Z,12.10
2018-12-03T12:49:42.981Z,12.00
2018-12-03T12:52:11.261Z,12.10
2018-12-03T12:54:39.484Z,12.10
2018-12-03T12:57:07.711Z,12.10
2018-12-03T12:59:36.764Z,12.20
2018-12-03T13:02:05.021Z,12.20
2018-12-03T13:04:33.243Z,12.20
2018-12-03T13:07:01.515Z,12.10
2018-12-03T13:09:29.735Z,12.10
2018-12-03T13:11:57.968Z,12.20
2018-12-03T13:14:26.247Z,12.20
2018-12-03T13:16:54.515Z,12.20
2018-12-03T13:19:22.771Z,12.30
2018-12-03T13:21:50.996Z,12.30
2018-12-03T13:24:20.010Z,12.30
2018-12-03T13:26:48.284Z,12.30
2018-12-03T13:29:17.307Z,12.00
2018-12-03T13:31:45.534Z,12.10
2018-12-03T13:34:14.548Z,12.20
2018-12-03T13:36:44.287Z,12.20
2018-12-03T13:39:12.553Z,12.20
2018-12-03T13:41:40.803Z,12.20
2018-12-03T13:44:09.018Z,12.30
2018-12-03T13:46:37.284Z,12.30
2018-12-03T13:49:05.516Z,12.10
2018-12-03T13:51:33.814Z,11.90
2018-12-03T13:54:02.078Z,11.90
2018-12-03T13:56:31.073Z,11.70
2018-12-03T13:59:00.084Z,11.70
2018-12-03T14:01:29.166Z,11.60
2018-12-03T14:03:57.429Z,11.60
2018-12-03T14:06:25.678Z,11.60
2018-12-03T14:08:53.974Z,11.50
2018-12-03T14:11:22.528Z,11.40
2018-12-03T14:13:50.804Z,11.40
2018-12-03T14:16:19.033Z,11.70
2018-12-03T14:18:47.285Z,11.70
2018-12-03T14:21:15.587Z,11.70
2018-12-03T14:23:44.198Z,11.70
2018-12-03T14:26:13.223Z,11.50
2018-12-03T14:28:41.437Z,11.50
2018-12-03T14:31:09.683Z,11.50
2018-12-03T14:33:37.919Z,11.50
2018-12-03T14:36:06.203Z,11.50
2018-12-03T14:38:34.412Z,11.50
2018-12-03T14:41:02.711Z,11.30
2018-12-03T14:43:30.919Z,11.30
2018-12-03T14:45:59.187Z,11.30
2018-12-03T14:48:28.203Z,11.10
2018-12-03T14:50:56.498Z,11.10
2018-12-03T14:53:24.756Z,11.20
2018-12-03T14:55:52.968Z,11.10
2018-12-03T14:58:21.208Z,11.20
2018-12-03T15:00:50.218Z,11.10
2018-12-03T15:03:18.430Z,11.10
2018-12-03T15:05:46.663Z,11.10
2018-12-03T15:08:14.881Z,10.90
2018-12-03T15:10:43.115Z,10.90
2018-12-03T15:13:11.417Z,10.80
2018-12-03T15:15:39.624Z,10.90
2018-12-03T15:18:07.886Z,10.80
2018-12-03T15:20:36.147Z,10.90
2018-12-03T15:23:04.414Z,10.90
2018-12-03T15:25:32.683Z,11.00
2018-12-03T15:28:00.979Z,10.90
2018-12-03T15:30:29.212Z,11.10
2018-12-03T15:32:57.496Z,11.10
2018-12-03T15:35:26.557Z,10.80
2018-12-03T15:37:54.828Z,10.80
2018-12-03T15:40:23.124Z,10.80
2018-12-03T15:42:51.387Z,10.90
2018-12-03T15:45:19.711Z,10.80
2018-12-03T15:47:47.910Z,10.70
2018-12-03T15:50:16.150Z,10.90
2018-12-03T15:52:44.408Z,11.10
2018-12-03T15:55:13.456Z,11.20
2018-12-03T15:57:41.686Z,11.10
2018-12-03T16:00:13.616Z,11.20
2018-12-03T16:02:41.910Z,11.20
2018-12-03T16:05:10.188Z,11.30
2018-12-03T16:07:38.421Z,11.40
2018-12-03T16:10:06.726Z,11.40
2018-12-03T16:12:34.983Z,11.40
2018-12-03T16:15:03.187Z,11.40
2018-12-03T16:17:31.474Z,11.40
2018-12-03T16:19:59.744Z,11.40
2018-12-03T16:22:28.358Z,11.40
2018-12-03T16:24:57.387Z,11.40
2018-12-03T16:27:25.894Z,11.40
2018-12-03T16:29:54.155Z,11.40
2018-12-03T16:32:22.391Z,11.50
2018-12-03T16:34:50.607Z,11.50
2018-12-03T16:37:18.898Z,11.40
2018-12-03T16:39:47.105Z,11.20
2018-12-03T16:42:16.200Z,11.00
2018-12-03T16:44:44.405Z,11.00
2018-12-03T16:47:12.686Z,10.80
2018-12-03T16:49:40.959Z,10.90
2018-12-03T16:52:09.174Z,10.80
2018-12-03T16:54:37.421Z,10.80
2018-12-03T16:57:05.617Z,10.80
2018-12-03T16:59:33.907Z,10.70
2018-12-03T17:02:02.119Z,10.70
2018-12-03T17:04:31.168Z,10.80
2018-12-03T17:06:59.386Z,10.70
2018-12-03T17:09:28.392Z,10.70
2018-12-03T17:11:57.405Z,10.50
2018-12-03T17:14:25.690Z,10.50
2018-12-03T17:16:53.935Z,10.50
2018-12-03T17:19:23.879Z,10.70
2018-12-03T17:21:52.107Z,10.70
2018-12-03T17:24:20.404Z,10.60
2018-12-03T17:26:49.449Z,10.50
2018-12-03T17:29:17.710Z,10.60
2018-12-03T17:31:45.953Z,10.50
2018-12-03T17:34:14.953Z,10.70
2018-12-03T17:36:43.255Z,10.70
2018-12-03T17:39:11.784Z,10.80
2018-12-03T17:41:40.062Z,10.80
2018-12-03T17:44:08.425Z,10.70
2018-12-03T17:46:36.650Z,10.80
2018-12-03T17:49:04.938Z,10.80
2018-12-03T17:51:33.975Z,10.90
2018-12-03T17:54:02.187Z,10.90
2018-12-03T17:56:31.241Z,10.90
2018-12-03T17:58:59.510Z,10.90
2018-12-03T18:01:27.754Z,10.90
2018-12-03T18:03:55.970Z,10.90
2018-12-03T18:06:24.831Z,10.90
2018-12-03T18:08:53.079Z,10.90
2018-12-03T18:11:22.108Z,11.00
2018-12-03T18:13:50.336Z,11.00
2018-12-03T18:16:19.379Z,11.00
2018-12-03T18:18:47.886Z,11.00
2018-12-03T18:21:16.110Z,11.00
2018-12-03T18:23:45.124Z,11.10
2018-12-03T18:26:13.391Z,11.10
2018-12-03T18:28:42.393Z,11.20
2018-12-03T18:31:11.191Z,11.20
2018-12-03T18:33:39.484Z,11.20
2018-12-03T18:36:07.739Z,11.30
2018-12-03T18:38:36.078Z,11.30
2018-12-03T18:41:04.298Z,11.30
2018-12-03T18:43:32.599Z,11.40
2018-12-03T18:46:00.839Z,11.40
2018-12-03T18:48:29.085Z,11.40
2018-12-03T18:50:57.383Z,11.40
2018-12-03T18:53:26.400Z,11.40
2018-12-03T18:55:54.640Z,11.40
2018-12-03T18:58:23.959Z,11.40
2018-12-03T19:00:52.760Z,11.40
2018-12-03T19:03:20.988Z,11.40
2018-12-03T19:05:49.297Z,11.50
2018-12-03T19:08:17.577Z,11.50
2018-12-03T19:10:45.790Z,11.40
2018-12-03T19:13:14.135Z,11.40
2018-12-03T19:15:43.150Z,11.40
2018-12-03T19:18:14.964Z,11.40
2018-12-03T19:20:43.256Z,11.40
2018-12-03T19:23:12.271Z,11.50
2018-12-03T19:25:40.554Z,11.50
2018-12-03T19:28:08.784Z,11.40
2018-12-03T19:30:38.611Z,11.50
2018-12-03T19:33:06.908Z,11.50
2018-12-03T19:35:35.908Z,11.50
2018-12-03T19:38:04.157Z,11.50
2018-12-03T19:40:32.389Z,11.40
2018-12-03T19:43:00.746Z,11.50
2018-12-03T19:45:29.008Z,11.40
2018-12-03T19:47:57.572Z,11.40
2018-12-03T19:50:25.798Z,11.50
2018-12-03T19:52:54.178Z,11.50
2018-12-03T19:55:22.324Z,11.50
2018-12-03T19:57:52.159Z,11.30
2018-12-03T20:00:20.429Z,11.30
2018-12-03T20:02:49.424Z,11.00
2018-12-03T20:05:17.732Z,11.00
2018-12-03T20:07:45.979Z,10.90
2018-12-03T20:10:14.264Z,10.70
2018-12-03T20:12:44.964Z,10.90
2018-12-03T20:15:13.985Z,10.80
2018-12-03T20:17:43.581Z,10.80
2018-12-03T20:20:11.367Z,10.70
2018-12-03T20:22:39.632Z,10.60
2018-12-03T20:25:07.892Z,10.60
2018-12-03T20:27:36.982Z,10.70
2018-12-03T20:30:05.287Z,10.70
2018-12-03T20:32:33.512Z,10.80
2018-12-03T20:35:02.702Z,10.60
2018-12-03T20:37:31.058Z,10.50
2018-12-03T20:39:59.358Z,10.50
2018-12-03T20:42:27.619Z,10.60
2018-12-03T20:44:55.863Z,10.60
2018-12-03T20:47:24.233Z,10.50
2018-12-03T20:49:52.502Z,10.40
2018-12-03T20:52:21.544Z,10.40
2018-12-03T20:54:49.816Z,10.40
2018-12-03T20:57:18.037Z,10.50
2018-12-03T20:59:46.374Z,10.40
2018-12-03T21:02:14.628Z,10.40
2018-12-03T21:04:42.871Z,10.50
2018-12-03T21:07:11.909Z,10.40
2018-12-03T21:09:40.208Z,10.30
2018-12-03T21:12:08.422Z,10.40
2018-12-03T21:14:36.691Z,10.50
2018-12-03T21:17:04.979Z,10.50
2018-12-03T21:19:33.190Z,10.40
2018-12-03T21:22:01.443Z,10.40
2018-12-03T21:24:30.425Z,10.50
2018-12-03T21:26:59.478Z,10.50
2018-12-03T21:29:27.710Z,10.50
2018-12-03T21:31:56.744Z,10.30
2018-12-03T21:34:25.004Z,10.30
2018-12-03T21:36:53.288Z,10.20
2018-12-03T21:39:21.545Z,10.10
2018-12-03T21:41:50.532Z,10.30
2018-12-03T21:44:19.624Z,10.20
2018-12-03T21:46:48.638Z,10.10
2018-12-03T21:49:16.902Z,10.20
2018-12-03T21:51:45.912Z,10.20
2018-12-03T21:54:14.297Z,10.20
2018-12-03T21:56:42.512Z,10.20
2018-12-03T21:59:10.932Z,10.20
2018-12-03T22:01:39.941Z,10.40
2018-12-03T22:04:08.443Z,10.40
2018-12-03T22:06:36.651Z,10.30
2018-12-03T22:09:05.037Z,10.30
2018-12-03T22:11:33.984Z,10.30
2018-12-03T22:14:02.261Z,10.30
2018-12-03T22:16:30.510Z,10.40
2018-12-03T22:18:59.508Z,10.40
2018-12-03T22:21:27.726Z,10.40
2018-12-03T22:23:56.034Z,10.40
2018-12-03T22:26:24.260Z,10.40
2018-12-03T22:28:52.499Z,10.20
2018-12-03T22:31:20.742Z,10.20
2018-12-03T22:33:49.019Z,10.30
2018-12-03T22:36:17.257Z,10.30
2018-12-03T22:38:45.507Z,10.30
2018-12-03T22:41:14.541Z,10.30
2018-12-03T22:43:42.801Z,10.30
2018-12-03T22:46:11.847Z,10.40
2018-12-03T22:48:40.107Z,10.40
2018-12-03T22:51:08.341Z,10.20
2018-12-03T22:53:36.569Z,10.20
2018-12-03T22:56:04.820Z,10.20
2018-12-03T22:58:33.078Z,10.10
2018-12-03T23:01:01.357Z,10.30
2018-12-03T23:03:30.322Z,10.40
2018-12-03T23:05:59.343Z,10.20
2018-12-03T23:08:27.571Z,10.10
2018-12-03T23:10:55.835Z,10.20
2018-12-03T23:13:24.071Z,10.20
2018-12-03T23:15:53.049Z,10.30
2018-12-03T23:18:22.103Z,10.30
2018-12-03T23:20:50.359Z,10.20
2018-12-03T23:23:18.630Z,10.30
2018-12-03T23:25:46.844Z,10.20
2018-12-03T23:28:15.173Z,10.10
2018-12-03T23:30:43.385Z,10.10
2018-12-03T23:33:11.615Z,10.00
2018-12-03T23:35:39.827Z,10.10
2018-12-03T23:38:08.155Z,10.10
2018-12-03T23:40:37.333Z,10.20
2018-12-03T23:43:05.619Z,10.30
2018-12-03T23:45:33.874Z,10.20
2018-12-03T23:48:02.122Z,10.20
2018-12-03T23:50:30.376Z,10.00
2018-12-03T23:52:58.612Z,10.00
2018-12-03T23:55:26.851Z,10.00
2018-12-03T23:57:55.108Z,10.10
